sensor_id;sensor_type;location;lat;lon;timestamp;pressure;altitude;pressure_sealevel;temperature
20058;BMP180;10189;49.546;7.906;2022-08-01T00:01:13;98177.00;;;22.50
20058;BMP180;10189;49.546;7.906;2022-08-01T00:03:39;98179.00;;;22.50
20058;BMP180;10189;49.546;7.906;2022-08-01T00:06:05;98177.00;;;22.50
20058;BMP180;10189;49.546;7.906;2022-08-01T00:08:31;98170.00;;;22.50
20058;BMP180;10189;49.546;7.906;2022-08-01T00:10:57;98183.00;;;22.50
20058;BMP180;10189;49.546;7.906;2022-08-01T00:13:23;98177.00;;;22.40
20058;BMP180;10189;49.546;7.906;2022-08-01T00:15:49;98178.00;;;22.40
20058;BMP180;10189;49.546;7.906;2022-08-01T00:18:15;98178.00;;;22.40
20058;BMP180;10189;49.546;7.906;2022-08-01T00:20:43;98179.00;;;22.30
20058;BMP180;10189;49.546;7.906;2022-08-01T00:23:09;98175.00;;;22.30
20058;BMP180;10189;49.546;7.906;2022-08-01T00:25:35;98182.00;;;22.20
20058;BMP180;10189;49.546;7.906;2022-08-01T00:28:02;98176.00;;;22.20
20058;BMP180;10189;49.546;7.906;2022-08-01T00:30:28;98167.00;;;22.10
20058;BMP180;10189;49.546;7.906;2022-08-01T00:32:55;98173.00;;;22.00
20058;BMP180;10189;49.546;7.906;2022-08-01T00:35:21;98176.00;;;22.00
20058;BMP180;10189;49.546;7.906;2022-08-01T00:37:47;98181.00;;;22.00
20058;BMP180;10189;49.546;7.906;2022-08-01T00:40:13;98184.00;;;21.90
20058;BMP180;10189;49.546;7.906;2022-08-01T00:42:39;98171.00;;;21.90
20058;BMP180;10189;49.546;7.906;2022-08-01T00:45:06;98179.00;;;21.80
20058;BMP180;10189;49.546;7.906;2022-08-01T00:47:32;98177.00;;;21.70
20058;BMP180;10189;49.546;7.906;2022-08-01T00:49:58;98176.00;;;21.80
20058;BMP180;10189;49.546;7.906;2022-08-01T00:52:24;98179.00;;;21.80
20058;BMP180;10189;49.546;7.906;2022-08-01T00:54:51;98169.00;;;21.70
20058;BMP180;10189;49.546;7.906;2022-08-01T00:57:17;98170.00;;;21.70
20058;BMP180;10189;49.546;7.906;2022-08-01T00:59:43;98162.00;;;21.60
20058;BMP180;10189;49.546;7.906;2022-08-01T01:02:09;98165.00;;;21.60
20058;BMP180;10189;49.546;7.906;2022-08-01T01:04:36;98159.00;;;21.70
20058;BMP180;10189;49.546;7.906;2022-08-01T01:10:46;98164.00;;;21.80
20058;BMP180;10189;49.546;7.906;2022-08-01T01:13:32;98157.00;;;21.60
20058;BMP180;10189;49.546;7.906;2022-08-01T01:16:08;98163.00;;;21.60
20058;BMP180;10189;49.546;7.906;2022-08-01T01:18:56;98166.00;;;21.50
20058;BMP180;10189;49.546;7.906;2022-08-01T01:28:17;98161.00;;;21.20
20058;BMP180;10189;49.546;7.906;2022-08-01T01:30:50;98156.00;;;21.10
20058;BMP180;10189;49.546;7.906;2022-08-01T01:33:20;98168.00;;;21.00
20058;BMP180;10189;49.546;7.906;2022-08-01T01:35:52;98170.00;;;20.90
20058;BMP180;10189;49.546;7.906;2022-08-01T01:38:24;98163.00;;;20.80
20058;BMP180;10189;49.546;7.906;2022-08-01T01:40:53;98175.00;;;20.70
20058;BMP180;10189;49.546;7.906;2022-08-01T01:43:22;98169.00;;;20.70
20058;BMP180;10189;49.546;7.906;2022-08-01T01:45:50;98174.00;;;20.60
20058;BMP180;10189;49.546;7.906;2022-08-01T01:48:20;98176.00;;;20.60
20058;BMP180;10189;49.546;7.906;2022-08-01T01:50:49;98180.00;;;20.60
20058;BMP180;10189;49.546;7.906;2022-08-01T01:53:20;98169.00;;;20.70
20058;BMP180;10189;49.546;7.906;2022-08-01T01:55:51;98175.00;;;20.60
20058;BMP180;10189;49.546;7.906;2022-08-01T01:58:19;98171.00;;;20.70
20058;BMP180;10189;49.546;7.906;2022-08-01T02:00:48;98183.00;;;20.60
20058;BMP180;10189;49.546;7.906;2022-08-01T02:03:17;98172.00;;;20.60
20058;BMP180;10189;49.546;7.906;2022-08-01T02:05:44;98174.00;;;20.60
20058;BMP180;10189;49.546;7.906;2022-08-01T02:08:14;98176.00;;;20.50
20058;BMP180;10189;49.546;7.906;2022-08-01T02:10:42;98172.00;;;20.60
20058;BMP180;10189;49.546;7.906;2022-08-01T02:13:32;98174.00;;;20.50
20058;BMP180;10189;49.546;7.906;2022-08-01T02:16:01;98179.00;;;20.50
20058;BMP180;10189;49.546;7.906;2022-08-01T02:18:27;98181.00;;;20.50
20058;BMP180;10189;49.546;7.906;2022-08-01T02:20:55;98175.00;;;20.40
20058;BMP180;10189;49.546;7.906;2022-08-01T02:23:24;98183.00;;;20.40
20058;BMP180;10189;49.546;7.906;2022-08-01T02:25:57;98184.00;;;20.40
20058;BMP180;10189;49.546;7.906;2022-08-01T02:28:38;98175.00;;;20.20
20058;BMP180;10189;49.546;7.906;2022-08-01T02:31:12;98170.00;;;20.10
20058;BMP180;10189;49.546;7.906;2022-08-01T02:33:45;98178.00;;;20.00
20058;BMP180;10189;49.546;7.906;2022-08-01T02:36:14;98179.00;;;20.00
20058;BMP180;10189;49.546;7.906;2022-08-01T02:38:45;98174.00;;;19.90
20058;BMP180;10189;49.546;7.906;2022-08-01T02:41:20;98180.00;;;19.90
20058;BMP180;10189;49.546;7.906;2022-08-01T02:43:51;98180.00;;;19.90
20058;BMP180;10189;49.546;7.906;2022-08-01T02:46:41;98180.00;;;19.90
20058;BMP180;10189;49.546;7.906;2022-08-01T02:49:11;98188.00;;;19.80
20058;BMP180;10189;49.546;7.906;2022-08-01T02:51:40;98177.00;;;19.80
20058;BMP180;10189;49.546;7.906;2022-08-01T02:54:09;98175.00;;;19.70
20058;BMP180;10189;49.546;7.906;2022-08-01T02:56:37;98182.00;;;19.70
20058;BMP180;10189;49.546;7.906;2022-08-01T02:59:13;98173.00;;;19.70
20058;BMP180;10189;49.546;7.906;2022-08-01T03:01:43;98180.00;;;19.70
20058;BMP180;10189;49.546;7.906;2022-08-01T03:04:11;98182.00;;;19.60
20058;BMP180;10189;49.546;7.906;2022-08-01T03:06:38;98175.00;;;19.60
20058;BMP180;10189;49.546;7.906;2022-08-01T03:09:06;98185.00;;;19.60
20058;BMP180;10189;49.546;7.906;2022-08-01T03:11:37;98190.00;;;19.50
20058;BMP180;10189;49.546;7.906;2022-08-01T03:14:09;98187.00;;;19.50
20058;BMP180;10189;49.546;7.906;2022-08-01T03:16:40;98189.00;;;19.50
20058;BMP180;10189;49.546;7.906;2022-08-01T03:19:12;98196.00;;;19.50
20058;BMP180;10189;49.546;7.906;2022-08-01T03:21:41;98185.00;;;19.40
20058;BMP180;10189;49.546;7.906;2022-08-01T03:24:11;98174.00;;;19.30
20058;BMP180;10189;49.546;7.906;2022-08-01T03:26:39;98190.00;;;19.20
20058;BMP180;10189;49.546;7.906;2022-08-01T03:29:13;98188.00;;;19.10
20058;BMP180;10189;49.546;7.906;2022-08-01T03:31:43;98195.00;;;19.10
20058;BMP180;10189;49.546;7.906;2022-08-01T03:34:11;98183.00;;;19.00
20058;BMP180;10189;49.546;7.906;2022-08-01T03:36:56;98195.00;;;19.00
20058;BMP180;10189;49.546;7.906;2022-08-01T03:39:31;98191.00;;;19.00
20058;BMP180;10189;49.546;7.906;2022-08-01T03:42:15;98199.00;;;19.00
20058;BMP180;10189;49.546;7.906;2022-08-01T03:44:47;98191.00;;;19.00
20058;BMP180;10189;49.546;7.906;2022-08-01T03:47:17;98196.00;;;18.90
20058;BMP180;10189;49.546;7.906;2022-08-01T03:49:46;98195.00;;;18.90
20058;BMP180;10189;49.546;7.906;2022-08-01T03:52:14;98193.00;;;18.90
20058;BMP180;10189;49.546;7.906;2022-08-01T03:54:46;98191.00;;;19.00
20058;BMP180;10189;49.546;7.906;2022-08-01T03:57:14;98189.00;;;19.00
20058;BMP180;10189;49.546;7.906;2022-08-01T03:59:41;98190.00;;;19.00
20058;BMP180;10189;49.546;7.906;2022-08-01T04:02:09;98190.00;;;19.10
20058;BMP180;10189;49.546;7.906;2022-08-01T04:04:35;98186.00;;;19.10
20058;BMP180;10189;49.546;7.906;2022-08-01T04:07:02;98178.00;;;19.10
20058;BMP180;10189;49.546;7.906;2022-08-01T04:09:32;98197.00;;;19.20
20058;BMP180;10189;49.546;7.906;2022-08-01T04:11:59;98191.00;;;19.20
20058;BMP180;10189;49.546;7.906;2022-08-01T04:14:27;98191.00;;;19.20
20058;BMP180;10189;49.546;7.906;2022-08-01T04:16:54;98201.00;;;19.20
20058;BMP180;10189;49.546;7.906;2022-08-01T04:19:20;98203.00;;;19.20
20058;BMP180;10189;49.546;7.906;2022-08-01T04:21:47;98211.00;;;19.20
20058;BMP180;10189;49.546;7.906;2022-08-01T04:24:17;98213.00;;;19.20
20058;BMP180;10189;49.546;7.906;2022-08-01T04:26:46;98204.00;;;19.20
20058;BMP180;10189;49.546;7.906;2022-08-01T04:29:16;98203.00;;;19.20
20058;BMP180;10189;49.546;7.906;2022-08-01T04:31:46;98214.00;;;19.20
20058;BMP180;10189;49.546;7.906;2022-08-01T04:34:17;98214.00;;;19.30
20058;BMP180;10189;49.546;7.906;2022-08-01T04:36:45;98216.00;;;19.30
20058;BMP180;10189;49.546;7.906;2022-08-01T04:39:13;98214.00;;;19.40
20058;BMP180;10189;49.546;7.906;2022-08-01T04:41:41;98217.00;;;19.40
20058;BMP180;10189;49.546;7.906;2022-08-01T04:44:08;98215.00;;;19.40
20058;BMP180;10189;49.546;7.906;2022-08-01T04:46:35;98219.00;;;19.50
20058;BMP180;10189;49.546;7.906;2022-08-01T04:49:06;98223.00;;;19.70
20058;BMP180;10189;49.546;7.906;2022-08-01T04:51:35;98213.00;;;20.00
20058;BMP180;10189;49.546;7.906;2022-08-01T04:54:01;98212.00;;;20.20
20058;BMP180;10189;49.546;7.906;2022-08-01T04:56:27;98218.00;;;20.50
20058;BMP180;10189;49.546;7.906;2022-08-01T04:58:53;98220.00;;;20.60
20058;BMP180;10189;49.546;7.906;2022-08-01T05:01:37;98217.00;;;20.90
20058;BMP180;10189;49.546;7.906;2022-08-01T05:04:03;98218.00;;;21.00
20058;BMP180;10189;49.546;7.906;2022-08-01T05:06:29;98219.00;;;21.20
20058;BMP180;10189;49.546;7.906;2022-08-01T05:08:55;98218.00;;;21.20
20058;BMP180;10189;49.546;7.906;2022-08-01T05:11:21;98216.00;;;21.30
20058;BMP180;10189;49.546;7.906;2022-08-01T05:13:48;98210.00;;;21.30
20058;BMP180;10189;49.546;7.906;2022-08-01T05:16:14;98212.00;;;21.60
20058;BMP180;10189;49.546;7.906;2022-08-01T05:18:40;98213.00;;;21.90
20058;BMP180;10189;49.546;7.906;2022-08-01T05:21:05;98215.00;;;21.90
20058;BMP180;10189;49.546;7.906;2022-08-01T05:23:31;98221.00;;;21.90
20058;BMP180;10189;49.546;7.906;2022-08-01T05:25:58;98224.00;;;21.80
20058;BMP180;10189;49.546;7.906;2022-08-01T05:28:24;98213.00;;;21.80
20058;BMP180;10189;49.546;7.906;2022-08-01T05:30:50;98218.00;;;21.80
20058;BMP180;10189;49.546;7.906;2022-08-01T05:33:20;98220.00;;;22.10
20058;BMP180;10189;49.546;7.906;2022-08-01T05:35:47;98231.00;;;22.30
20058;BMP180;10189;49.546;7.906;2022-08-01T05:38:12;98231.00;;;22.50
20058;BMP180;10189;49.546;7.906;2022-08-01T05:40:38;98230.00;;;22.30
20058;BMP180;10189;49.546;7.906;2022-08-01T05:43:04;98227.00;;;22.20
20058;BMP180;10189;49.546;7.906;2022-08-01T05:45:30;98228.00;;;22.10
20058;BMP180;10189;49.546;7.906;2022-08-01T05:47:56;98230.00;;;22.40
20058;BMP180;10189;49.546;7.906;2022-08-01T05:50:22;98224.00;;;22.70
20058;BMP180;10189;49.546;7.906;2022-08-01T05:52:48;98224.00;;;22.80
20058;BMP180;10189;49.546;7.906;2022-08-01T05:55:14;98222.00;;;23.20
20058;BMP180;10189;49.546;7.906;2022-08-01T05:57:40;98224.00;;;23.20
20058;BMP180;10189;49.546;7.906;2022-08-01T06:00:07;98216.00;;;23.40
20058;BMP180;10189;49.546;7.906;2022-08-01T06:02:44;98218.00;;;23.70
20058;BMP180;10189;49.546;7.906;2022-08-01T06:05:10;98223.00;;;23.70
20058;BMP180;10189;49.546;7.906;2022-08-01T06:07:36;98228.00;;;23.60
20058;BMP180;10189;49.546;7.906;2022-08-01T06:10:05;98230.00;;;23.50
20058;BMP180;10189;49.546;7.906;2022-08-01T06:12:33;98219.00;;;23.50
20058;BMP180;10189;49.546;7.906;2022-08-01T06:14:59;98230.00;;;23.50
20058;BMP180;10189;49.546;7.906;2022-08-01T06:17:25;98230.00;;;23.70
20058;BMP180;10189;49.546;7.906;2022-08-01T06:19:51;98239.00;;;23.90
20058;BMP180;10189;49.546;7.906;2022-08-01T06:22:17;98236.00;;;24.10
20058;BMP180;10189;49.546;7.906;2022-08-01T06:24:43;98252.00;;;23.90
20058;BMP180;10189;49.546;7.906;2022-08-01T06:27:08;98250.00;;;23.60
20058;BMP180;10189;49.546;7.906;2022-08-01T06:29:34;98251.00;;;23.80
20058;BMP180;10189;49.546;7.906;2022-08-01T06:32:00;98246.00;;;24.40
20058;BMP180;10189;49.546;7.906;2022-08-01T06:34:26;98254.00;;;24.70
20058;BMP180;10189;49.546;7.906;2022-08-01T06:36:52;98247.00;;;24.70
20058;BMP180;10189;49.546;7.906;2022-08-01T06:39:18;98252.00;;;24.50
20058;BMP180;10189;49.546;7.906;2022-08-01T06:41:44;98250.00;;;24.30
20058;BMP180;10189;49.546;7.906;2022-08-01T06:44:12;98258.00;;;23.80
20058;BMP180;10189;49.546;7.906;2022-08-01T06:46:39;98254.00;;;24.10
20058;BMP180;10189;49.546;7.906;2022-08-01T06:49:05;98262.00;;;24.00
20058;BMP180;10189;49.546;7.906;2022-08-01T06:51:31;98262.00;;;24.00
20058;BMP180;10189;49.546;7.906;2022-08-01T06:53:57;98257.00;;;24.10
20058;BMP180;10189;49.546;7.906;2022-08-01T06:56:23;98260.00;;;24.40
20058;BMP180;10189;49.546;7.906;2022-08-01T06:58:51;98249.00;;;24.60
20058;BMP180;10189;49.546;7.906;2022-08-01T07:01:18;98248.00;;;24.80
20058;BMP180;10189;49.546;7.906;2022-08-01T07:03:44;98241.00;;;25.00
20058;BMP180;10189;49.546;7.906;2022-08-01T07:06:10;98254.00;;;25.30
20058;BMP180;10189;49.546;7.906;2022-08-01T07:08:36;98243.00;;;25.30
20058;BMP180;10189;49.546;7.906;2022-08-01T07:11:02;98239.00;;;25.60
20058;BMP180;10189;49.546;7.906;2022-08-01T07:13:29;98239.00;;;25.90
20058;BMP180;10189;49.546;7.906;2022-08-01T07:15:57;98240.00;;;26.00
20058;BMP180;10189;49.546;7.906;2022-08-01T07:18:23;98252.00;;;26.00
20058;BMP180;10189;49.546;7.906;2022-08-01T07:20:50;98231.00;;;26.10
20058;BMP180;10189;49.546;7.906;2022-08-01T07:23:16;98236.00;;;26.00
20058;BMP180;10189;49.546;7.906;2022-08-01T07:25:42;98242.00;;;25.80
20058;BMP180;10189;49.546;7.906;2022-08-01T07:28:08;98236.00;;;25.50
20058;BMP180;10189;49.546;7.906;2022-08-01T07:30:34;98237.00;;;25.80
20058;BMP180;10189;49.546;7.906;2022-08-01T07:33:01;98235.00;;;25.50
20058;BMP180;10189;49.546;7.906;2022-08-01T07:35:27;98232.00;;;26.10
20058;BMP180;10189;49.546;7.906;2022-08-01T07:37:53;98230.00;;;26.40
20058;BMP180;10189;49.546;7.906;2022-08-01T07:40:19;98236.00;;;26.50
20058;BMP180;10189;49.546;7.906;2022-08-01T07:42:46;98229.00;;;26.90
20058;BMP180;10189;49.546;7.906;2022-08-01T07:45:13;98229.00;;;27.20
20058;BMP180;10189;49.546;7.906;2022-08-01T07:47:39;98233.00;;;26.90
20058;BMP180;10189;49.546;7.906;2022-08-01T07:50:06;98226.00;;;27.10
20058;BMP180;10189;49.546;7.906;2022-08-01T07:52:33;98234.00;;;26.90
20058;BMP180;10189;49.546;7.906;2022-08-01T07:54:59;98235.00;;;26.80
20058;BMP180;10189;49.546;7.906;2022-08-01T07:57:25;98246.00;;;26.60
20058;BMP180;10189;49.546;7.906;2022-08-01T07:59:51;98241.00;;;26.20
20058;BMP180;10189;49.546;7.906;2022-08-01T08:02:17;98246.00;;;26.60
20058;BMP180;10189;49.546;7.906;2022-08-01T08:04:43;98239.00;;;26.70
20058;BMP180;10189;49.546;7.906;2022-08-01T08:07:09;98244.00;;;26.60
20058;BMP180;10189;49.546;7.906;2022-08-01T08:09:35;98231.00;;;26.80
20058;BMP180;10189;49.546;7.906;2022-08-01T08:12:01;98241.00;;;26.30
20058;BMP180;10189;49.546;7.906;2022-08-01T08:14:27;98243.00;;;26.50
20058;BMP180;10189;49.546;7.906;2022-08-01T08:16:53;98237.00;;;26.60
20058;BMP180;10189;49.546;7.906;2022-08-01T08:19:18;98241.00;;;26.90
20058;BMP180;10189;49.546;7.906;2022-08-01T08:21:44;98235.00;;;27.10
20058;BMP180;10189;49.546;7.906;2022-08-01T08:24:10;98224.00;;;27.30
20058;BMP180;10189;49.546;7.906;2022-08-01T08:26:54;98230.00;;;27.10
20058;BMP180;10189;49.546;7.906;2022-08-01T08:29:22;98234.00;;;26.20
20058;BMP180;10189;49.546;7.906;2022-08-01T08:31:49;98229.00;;;26.40
20058;BMP180;10189;49.546;7.906;2022-08-01T08:34:17;98230.00;;;26.70
20058;BMP180;10189;49.546;7.906;2022-08-01T08:36:43;98235.00;;;26.10
20058;BMP180;10189;49.546;7.906;2022-08-01T08:39:09;98238.00;;;25.90
20058;BMP180;10189;49.546;7.906;2022-08-01T08:41:36;98230.00;;;26.00
20058;BMP180;10189;49.546;7.906;2022-08-01T08:44:07;98236.00;;;26.40
20058;BMP180;10189;49.546;7.906;2022-08-01T08:46:40;98226.00;;;26.50
20058;BMP180;10189;49.546;7.906;2022-08-01T08:49:06;98223.00;;;26.70
20058;BMP180;10189;49.546;7.906;2022-08-01T08:51:35;98219.00;;;26.80
20058;BMP180;10189;49.546;7.906;2022-08-01T08:54:05;98228.00;;;26.90
20058;BMP180;10189;49.546;7.906;2022-08-01T08:56:34;98225.00;;;26.70
20058;BMP180;10189;49.546;7.906;2022-08-01T08:59:02;98227.00;;;27.00
20058;BMP180;10189;49.546;7.906;2022-08-01T09:01:30;98214.00;;;27.00
20058;BMP180;10189;49.546;7.906;2022-08-01T09:03:59;98223.00;;;27.20
20058;BMP180;10189;49.546;7.906;2022-08-01T09:06:25;98225.00;;;26.70
20058;BMP180;10189;49.546;7.906;2022-08-01T09:08:51;98217.00;;;26.60
20058;BMP180;10189;49.546;7.906;2022-08-01T09:11:16;98214.00;;;26.60
20058;BMP180;10189;49.546;7.906;2022-08-01T09:14:10;98215.00;;;27.00
20058;BMP180;10189;49.546;7.906;2022-08-01T09:16:41;98218.00;;;27.70
20058;BMP180;10189;49.546;7.906;2022-08-01T09:19:13;98217.00;;;27.80
20058;BMP180;10189;49.546;7.906;2022-08-01T09:21:56;98214.00;;;28.10
20058;BMP180;10189;49.546;7.906;2022-08-01T09:24:26;98219.00;;;27.30
20058;BMP180;10189;49.546;7.906;2022-08-01T09:26:54;98225.00;;;27.10
20058;BMP180;10189;49.546;7.906;2022-08-01T09:29:25;98230.00;;;27.20
20058;BMP180;10189;49.546;7.906;2022-08-01T09:31:51;98233.00;;;27.00
20058;BMP180;10189;49.546;7.906;2022-08-01T09:34:28;98231.00;;;26.70
20058;BMP180;10189;49.546;7.906;2022-08-01T09:36:59;98234.00;;;26.40
20058;BMP180;10189;49.546;7.906;2022-08-01T09:39:37;98241.00;;;26.50
20058;BMP180;10189;49.546;7.906;2022-08-01T09:42:26;98237.00;;;26.50
20058;BMP180;10189;49.546;7.906;2022-08-01T09:44:53;98230.00;;;27.80
20058;BMP180;10189;49.546;7.906;2022-08-01T09:47:20;98225.00;;;28.60
20058;BMP180;10189;49.546;7.906;2022-08-01T09:49:56;98227.00;;;29.00
20058;BMP180;10189;49.546;7.906;2022-08-01T09:52:25;98229.00;;;29.10
20058;BMP180;10189;49.546;7.906;2022-08-01T09:57:23;98232.00;;;28.30
20058;BMP180;10189;49.546;7.906;2022-08-01T09:59:53;98228.00;;;28.00
20058;BMP180;10189;49.546;7.906;2022-08-01T10:04:56;98231.00;;;27.90
20058;BMP180;10189;49.546;7.906;2022-08-01T10:07:22;98232.00;;;28.10
20058;BMP180;10189;49.546;7.906;2022-08-01T10:09:48;98231.00;;;27.80
20058;BMP180;10189;49.546;7.906;2022-08-01T10:12:18;98239.00;;;27.40
20058;BMP180;10189;49.546;7.906;2022-08-01T10:14:48;98236.00;;;27.40
20058;BMP180;10189;49.546;7.906;2022-08-01T10:17:18;98238.00;;;26.90
20058;BMP180;10189;49.546;7.906;2022-08-01T10:19:46;98225.00;;;27.00
20058;BMP180;10189;49.546;7.906;2022-08-01T10:22:14;98230.00;;;27.00
20058;BMP180;10189;49.546;7.906;2022-08-01T10:24:47;98229.00;;;27.40
20058;BMP180;10189;49.546;7.906;2022-08-01T10:27:16;98222.00;;;28.10
20058;BMP180;10189;49.546;7.906;2022-08-01T10:30:01;98215.00;;;28.70
20058;BMP180;10189;49.546;7.906;2022-08-01T10:32:32;98225.00;;;28.80
20058;BMP180;10189;49.546;7.906;2022-08-01T10:35:00;98222.00;;;28.60
20058;BMP180;10189;49.546;7.906;2022-08-01T10:37:27;98229.00;;;28.50
20058;BMP180;10189;49.546;7.906;2022-08-01T10:39:54;98229.00;;;28.00
20058;BMP180;10189;49.546;7.906;2022-08-01T10:42:21;98232.00;;;27.70
20058;BMP180;10189;49.546;7.906;2022-08-01T10:44:48;98233.00;;;27.50
20058;BMP180;10189;49.546;7.906;2022-08-01T10:47:20;98228.00;;;27.50
20058;BMP180;10189;49.546;7.906;2022-08-01T10:50:17;98226.00;;;27.10
20058;BMP180;10189;49.546;7.906;2022-08-01T10:53:16;98233.00;;;27.60
20058;BMP180;10189;49.546;7.906;2022-08-01T11:03:39;98192.00;;;29.40
20058;BMP180;10189;49.546;7.906;2022-08-01T11:06:05;98206.00;;;29.80
20058;BMP180;10189;49.546;7.906;2022-08-01T11:08:36;98208.00;;;29.90
20058;BMP180;10189;49.546;7.906;2022-08-01T11:11:04;98208.00;;;29.80
20058;BMP180;10189;49.546;7.906;2022-08-01T11:16:35;98193.00;;;28.70
20058;BMP180;10189;49.546;7.906;2022-08-01T11:19:04;98216.00;;;28.40
20058;BMP180;10189;49.546;7.906;2022-08-01T11:27:27;98202.00;;;28.00
20058;BMP180;10189;49.546;7.906;2022-08-01T11:32:54;98200.00;;;28.40
20058;BMP180;10189;49.546;7.906;2022-08-01T11:35:23;98188.00;;;28.60
20058;BMP180;10189;49.546;7.906;2022-08-01T11:37:51;98202.00;;;28.50
20058;BMP180;10189;49.546;7.906;2022-08-01T11:40:26;98200.00;;;28.40
20058;BMP180;10189;49.546;7.906;2022-08-01T11:43:18;98198.00;;;28.20
20058;BMP180;10189;49.546;7.906;2022-08-01T11:48:27;98193.00;;;28.60
20058;BMP180;10189;49.546;7.906;2022-08-01T11:50:56;98194.00;;;28.40
20058;BMP180;10189;49.546;7.906;2022-08-01T11:53:22;98200.00;;;28.30
20058;BMP180;10189;49.546;7.906;2022-08-01T11:55:53;98195.00;;;28.80
20058;BMP180;10189;49.546;7.906;2022-08-01T11:58:25;98195.00;;;29.30
20058;BMP180;10189;49.546;7.906;2022-08-01T12:00:53;98184.00;;;29.40
20058;BMP180;10189;49.546;7.906;2022-08-01T12:03:32;98193.00;;;30.10
20058;BMP180;10189;49.546;7.906;2022-08-01T12:05:58;98180.00;;;30.30
20058;BMP180;10189;49.546;7.906;2022-08-01T12:08:30;98176.00;;;30.30
20058;BMP180;10189;49.546;7.906;2022-08-01T12:11:04;98177.00;;;29.80
20058;BMP180;10189;49.546;7.906;2022-08-01T12:13:43;98181.00;;;29.50
20058;BMP180;10189;49.546;7.906;2022-08-01T12:16:11;98174.00;;;29.70
20058;BMP180;10189;49.546;7.906;2022-08-01T12:18:42;98180.00;;;30.40
20058;BMP180;10189;49.546;7.906;2022-08-01T12:21:08;98167.00;;;29.70
20058;BMP180;10189;49.546;7.906;2022-08-01T12:23:34;98173.00;;;29.80
20058;BMP180;10189;49.546;7.906;2022-08-01T12:26:00;98171.00;;;30.20
20058;BMP180;10189;49.546;7.906;2022-08-01T12:28:27;98174.00;;;30.40
20058;BMP180;10189;49.546;7.906;2022-08-01T12:30:53;98171.00;;;30.70
20058;BMP180;10189;49.546;7.906;2022-08-01T12:33:21;98171.00;;;30.40
20058;BMP180;10189;49.546;7.906;2022-08-01T12:35:47;98167.00;;;30.60
20058;BMP180;10189;49.546;7.906;2022-08-01T12:38:20;98172.00;;;30.50
20058;BMP180;10189;49.546;7.906;2022-08-01T12:40:48;98176.00;;;29.90
20058;BMP180;10189;49.546;7.906;2022-08-01T12:43:20;98174.00;;;30.50
20058;BMP180;10189;49.546;7.906;2022-08-01T12:45:50;98175.00;;;30.60
20058;BMP180;10189;49.546;7.906;2022-08-01T12:48:18;98178.00;;;29.70
20058;BMP180;10189;49.546;7.906;2022-08-01T12:50:47;98177.00;;;29.80
20058;BMP180;10189;49.546;7.906;2022-08-01T12:53:15;98176.00;;;29.80
20058;BMP180;10189;49.546;7.906;2022-08-01T12:55:53;98177.00;;;30.60
20058;BMP180;10189;49.546;7.906;2022-08-01T12:58:21;98167.00;;;31.10
20058;BMP180;10189;49.546;7.906;2022-08-01T13:00:49;98167.00;;;31.70
20058;BMP180;10189;49.546;7.906;2022-08-01T13:03:19;98166.00;;;31.80
20058;BMP180;10189;49.546;7.906;2022-08-01T13:05:57;98172.00;;;31.40
20058;BMP180;10189;49.546;7.906;2022-08-01T13:08:29;98169.00;;;31.10
20058;BMP180;10189;49.546;7.906;2022-08-01T13:13:48;98163.00;;;31.80
20058;BMP180;10189;49.546;7.906;2022-08-01T13:16:20;98170.00;;;31.50
20058;BMP180;10189;49.546;7.906;2022-08-01T13:18:52;98179.00;;;30.80
20058;BMP180;10189;49.546;7.906;2022-08-01T13:24:09;98180.00;;;31.20
20058;BMP180;10189;49.546;7.906;2022-08-01T13:29:18;98180.00;;;31.60
20058;BMP180;10189;49.546;7.906;2022-08-01T13:31:45;98166.00;;;30.30
20058;BMP180;10189;49.546;7.906;2022-08-01T13:34:12;98166.00;;;30.50
20058;BMP180;10189;49.546;7.906;2022-08-01T13:36:39;98176.00;;;30.90
20058;BMP180;10189;49.546;7.906;2022-08-01T13:39:06;98173.00;;;31.00
20058;BMP180;10189;49.546;7.906;2022-08-01T13:41:52;98171.00;;;31.10
20058;BMP180;10189;49.546;7.906;2022-08-01T13:44:18;98171.00;;;31.40
20058;BMP180;10189;49.546;7.906;2022-08-01T13:46:45;98164.00;;;31.60
20058;BMP180;10189;49.546;7.906;2022-08-01T13:49:13;98167.00;;;31.20
20058;BMP180;10189;49.546;7.906;2022-08-01T13:51:39;98174.00;;;31.00
20058;BMP180;10189;49.546;7.906;2022-08-01T13:54:06;98172.00;;;30.40
20058;BMP180;10189;49.546;7.906;2022-08-01T13:56:33;98169.00;;;30.20
20058;BMP180;10189;49.546;7.906;2022-08-01T13:58:59;98171.00;;;30.70
20058;BMP180;10189;49.546;7.906;2022-08-01T14:01:25;98169.00;;;30.30
20058;BMP180;10189;49.546;7.906;2022-08-01T14:03:52;98162.00;;;30.80
20058;BMP180;10189;49.546;7.906;2022-08-01T14:06:18;98161.00;;;31.10
20058;BMP180;10189;49.546;7.906;2022-08-01T14:08:46;98166.00;;;31.10
20058;BMP180;10189;49.546;7.906;2022-08-01T14:11:12;98167.00;;;31.00
20058;BMP180;10189;49.546;7.906;2022-08-01T14:13:38;98160.00;;;30.20
20058;BMP180;10189;49.546;7.906;2022-08-01T14:16:07;98158.00;;;30.10
20058;BMP180;10189;49.546;7.906;2022-08-01T14:18:33;98160.00;;;30.00
20058;BMP180;10189;49.546;7.906;2022-08-01T14:20:59;98160.00;;;30.10
20058;BMP180;10189;49.546;7.906;2022-08-01T14:23:26;98163.00;;;30.10
20058;BMP180;10189;49.546;7.906;2022-08-01T14:25:52;98168.00;;;30.30
20058;BMP180;10189;49.546;7.906;2022-08-01T14:28:18;98168.00;;;30.60
20058;BMP180;10189;49.546;7.906;2022-08-01T14:30:44;98175.00;;;30.30
20058;BMP180;10189;49.546;7.906;2022-08-01T14:33:12;98167.00;;;30.60
20058;BMP180;10189;49.546;7.906;2022-08-01T14:35:38;98173.00;;;30.40
20058;BMP180;10189;49.546;7.906;2022-08-01T14:38:04;98161.00;;;30.20
20058;BMP180;10189;49.546;7.906;2022-08-01T14:40:30;98173.00;;;30.10
20058;BMP180;10189;49.546;7.906;2022-08-01T14:42:57;98176.00;;;29.80
20058;BMP180;10189;49.546;7.906;2022-08-01T14:45:24;98178.00;;;30.10
20058;BMP180;10189;49.546;7.906;2022-08-01T14:47:50;98173.00;;;30.10
20058;BMP180;10189;49.546;7.906;2022-08-01T14:50:16;98171.00;;;30.10
20058;BMP180;10189;49.546;7.906;2022-08-01T14:52:43;98160.00;;;30.40
20058;BMP180;10189;49.546;7.906;2022-08-01T14:55:11;98164.00;;;30.30
20058;BMP180;10189;49.546;7.906;2022-08-01T14:57:39;98170.00;;;30.20
20058;BMP180;10189;49.546;7.906;2022-08-01T15:00:09;98170.00;;;29.50
20058;BMP180;10189;49.546;7.906;2022-08-01T15:02:39;98169.00;;;29.30
20058;BMP180;10189;49.546;7.906;2022-08-01T15:05:06;98169.00;;;28.60